Time;durP1;ratioP1;P1;durP2;ratioP2;P2;SDS_P1;SDS_P2;PMS_P1;PMS_P2;Temp;Humidity;BMP_temperature;BMP_pressure;BME280_temperature;BME280_humidity;BME280_pressure;Samples;Min_cycle;Max_cycle;Signal;HPM_P1;HPM_P2
2023/05/30 00:00:58;;;;;;;9.85;2.30;;;15.70;99.90;;;;;;4999362;28;20038;-73
2023/05/30 00:03:24;;;;;;;7.97;2.35;;;15.70;99.90;;;;;;4999546;28;20026;-73
2023/05/30 00:05:50;;;;;;;8.00;2.10;;;15.90;99.90;;;;;;4999613;28;20023;-73
2023/05/30 00:08:16;;;;;;;10.05;2.60;;;16.00;99.90;;;;;;4999142;28;20062;-73
2023/05/30 00:10:41;;;;;;;9.52;2.08;;;16.00;99.90;;;;;;4999174;28;20035;-73
2023/05/30 00:13:07;;;;;;;13.55;3.15;;;15.80;99.90;;;;;;5000596;28;20030;-73
2023/05/30 00:15:33;;;;;;;9.43;2.55;;;16.00;99.90;;;;;;4998876;28;20033;-73
2023/05/30 00:18:00;;;;;;;11.77;2.63;;;15.80;99.90;;;;;;4999218;28;20026;-73
2023/05/30 00:20:29;;;;;;;10.02;2.40;;;15.80;99.90;;;;;;4999047;28;20046;-73
2023/05/30 00:22:58;;;;;;;12.80;2.42;;;15.60;99.90;;;;;;4999862;28;20097;-73
2023/05/30 00:25:24;;;;;;;12.60;3.08;;;15.60;99.90;;;;;;4999710;28;20027;-73
2023/05/30 00:27:50;;;;;;;10.82;2.70;;;15.40;99.90;;;;;;5023142;23;20112;-74
2023/05/30 00:30:16;;;;;;;7.00;2.30;;;15.50;99.90;;;;;;4999151;28;20114;-74
2023/05/30 00:32:42;;;;;;;9.93;2.42;;;15.50;99.90;;;;;;4999685;28;20058;-74
2023/05/30 00:35:08;;;;;;;15.55;3.15;;;15.60;99.90;;;;;;4998789;28;20037;-74
2023/05/30 00:37:33;;;;;;;11.35;2.55;;;15.80;99.90;;;;;;4998588;28;20022;-74
2023/05/30 00:39:59;;;;;;;10.27;2.08;;;15.70;99.90;;;;;;4999407;28;20114;-74
2023/05/30 00:42:27;;;;;;;8.77;2.28;;;15.60;99.90;;;;;;4999535;28;20057;-74
2023/05/30 00:44:53;;;;;;;10.52;2.50;;;15.40;99.90;;;;;;4999708;28;20054;-74
2023/05/30 00:47:19;;;;;;;11.90;2.38;;;15.20;99.90;;;;;;4998929;28;20069;-74
2023/05/30 00:49:45;;;;;;;8.15;2.20;;;15.10;99.90;;;;;;4999095;28;20030;-74
2023/05/30 00:52:12;;;;;;;9.23;2.33;;;15.10;99.90;;;;;;4999112;28;20018;-75
2023/05/30 00:54:42;;;;;;;13.02;2.33;;;14.90;99.90;;;;;;4998487;28;20051;-74
2023/05/30 00:57:08;;;;;;;10.95;2.30;;;15.00;99.90;;;;;;4998226;28;20038;-74
2023/05/30 00:59:34;;;;;;;10.00;2.72;;;15.20;99.90;;;;;;4999172;28;20022;-74
2023/05/30 01:02:00;;;;;;;11.40;2.15;;;15.40;99.90;;;;;;4998651;28;20022;-74
2023/05/30 01:04:25;;;;;;;10.50;2.17;;;15.30;99.90;;;;;;4998165;28;20117;-74
2023/05/30 01:06:51;;;;;;;12.60;2.78;;;15.20;99.90;;;;;;4997955;28;20036;-74
2023/05/30 01:09:18;;;;;;;12.82;3.10;;;15.00;99.90;;;;;;4997929;28;20139;-74
2023/05/30 01:12:06;;;;;;;10.02;2.58;;;15.00;99.90;;;;;;4998414;28;20085;-75
2023/05/30 01:14:40;;;;;;;10.90;2.17;;;14.80;99.90;;;;;;4997959;28;20029;-75
2023/05/30 01:17:23;;;;;;;9.30;2.30;;;15.00;99.90;;;;;;4998331;28;20027;-75
2023/05/30 01:20:10;;;;;;;12.60;2.92;;;15.10;99.90;;;;;;4997856;28;20026;-75
2023/05/30 01:23:09;;;;;;;7.63;2.70;;;15.20;99.90;;;;;;4998662;28;20064;-75
2023/05/30 01:25:38;;;;;;;11.48;2.58;;;15.20;99.90;;;;;;4998072;28;20032;-75
2023/05/30 01:28:21;;;;;;;9.50;2.22;;;14.90;99.90;;;;;;4997774;28;20030;-74
2023/05/30 01:30:49;;;;;;;20.15;2.97;;;14.70;99.90;;;;;;4997710;28;20026;-74
2023/05/30 01:33:16;;;;;;;11.57;2.53;;;14.50;99.90;;;;;;4998062;28;20026;-74
2023/05/30 01:35:44;;;;;;;9.25;2.38;;;14.60;99.90;;;;;;4997807;28;20034;-74
2023/05/30 01:38:10;;;;;;;7.93;2.63;;;14.70;99.90;;;;;;4997564;28;20022;-74
2023/05/30 01:40:37;;;;;;;11.52;3.28;;;14.50;99.90;;;;;;4998432;28;20036;-74
2023/05/30 01:43:34;;;;;;;14.45;2.63;;;14.30;99.90;;;;;;4997790;28;20026;-74
2023/05/30 01:46:30;;;;;;;13.43;2.50;;;14.50;99.90;;;;;;4998085;28;20033;-74
2023/05/30 01:48:59;;;;;;;14.48;2.70;;;14.60;99.90;;;;;;4998266;28;20018;-74
2023/05/30 01:51:34;;;;;;;9.85;2.60;;;14.50;99.90;;;;;;4997511;28;20026;-74
2023/05/30 01:54:03;;;;;;;8.68;2.33;;;14.70;99.90;;;;;;4997249;28;20018;-74
2023/05/30 01:56:31;;;;;;;12.68;2.10;;;14.60;99.90;;;;;;4997147;28;20026;-74
2023/05/30 01:58:59;;;;;;;10.90;2.58;;;14.60;99.90;;;;;;4997100;28;20090;-74
2023/05/30 02:01:28;;;;;;;11.90;2.70;;;14.50;99.90;;;;;;4996821;28;20048;-74
2023/05/30 02:03:54;;;;;;;8.25;2.20;;;14.60;99.90;;;;;;4997972;28;20081;-74
2023/05/30 02:06:20;;;;;;;12.55;2.83;;;14.50;99.90;;;;;;4997031;28;20023;-74
2023/05/30 02:08:45;;;;;;;12.75;2.75;;;14.20;99.90;;;;;;4997922;28;20032;-74
2023/05/30 02:11:11;;;;;;;13.73;2.67;;;14.10;99.90;;;;;;4997012;28;20117;-74
2023/05/30 02:13:36;;;;;;;15.35;2.20;;;14.20;99.90;;;;;;4997439;28;20109;-74
2023/05/30 02:16:02;;;;;;;13.68;2.15;;;14.30;99.90;;;;;;4997857;28;20054;-74
2023/05/30 02:18:27;;;;;;;12.43;3.78;;;14.10;99.90;;;;;;4996749;28;20027;-74
2023/05/30 02:20:54;;;;;;;14.85;2.53;;;14.10;99.90;;;;;;4997023;28;20026;-74
2023/05/30 02:23:20;;;;;;;15.32;2.63;;;14.10;99.90;;;;;;4998017;28;20030;-74
2023/05/30 02:25:46;;;;;;;13.43;2.50;;;14.40;99.90;;;;;;4996851;28;20026;-74
2023/05/30 02:28:11;;;;;;;10.95;2.05;;;14.30;99.90;;;;;;4996572;28;20037;-74
2023/05/30 02:30:37;;;;;;;16.48;3.38;;;14.40;99.90;;;;;;4996785;28;20019;-74
2023/05/30 02:33:03;;;;;;;11.20;2.55;;;14.30;99.90;;;;;;4996817;28;20023;-74
2023/05/30 02:35:28;;;;;;;12.13;2.60;;;14.20;99.90;;;;;;4997669;28;20030;-74
2023/05/30 02:37:54;;;;;;;9.95;2.13;;;14.10;99.90;;;;;;4996934;28;20026;-74
2023/05/30 02:40:20;;;;;;;15.18;2.45;;;14.30;99.90;;;;;;4997120;28;20031;-74
2023/05/30 02:42:45;;;;;;;11.93;2.47;;;14.30;99.90;;;;;;4997386;28;20117;-74
2023/05/30 02:45:11;;;;;;;10.02;2.05;;;13.90;99.90;;;;;;4997013;28;20049;-74
2023/05/30 02:47:36;;;;;;;13.00;2.28;;;13.80;99.90;;;;;;4997089;28;20114;-74
2023/05/30 02:50:02;;;;;;;11.13;2.60;;;13.90;99.90;;;;;;4996690;28;20049;-74
2023/05/30 02:52:28;;;;;;;9.88;2.15;;;13.80;99.90;;;;;;4997399;28;20145;-74
2023/05/30 02:54:54;;;;;;;10.95;2.10;;;13.90;99.90;;;;;;4996840;28;20035;-74
2023/05/30 02:57:21;;;;;;;11.60;2.92;;;13.80;99.90;;;;;;4997379;28;20114;-74
2023/05/30 02:59:46;;;;;;;7.60;2.15;;;13.50;99.90;;;;;;4997512;28;20125;-74
2023/05/30 03:02:12;;;;;;;15.38;2.78;;;13.50;99.90;;;;;;4997341;28;20054;-74
2023/05/30 03:04:37;;;;;;;16.58;2.90;;;13.50;99.90;;;;;;4997743;28;20026;-74
2023/05/30 03:07:03;;;;;;;9.60;2.42;;;13.40;99.90;;;;;;4996410;28;20076;-74
2023/05/30 03:09:29;;;;;;;10.63;2.45;;;13.50;99.90;;;;;;4997248;28;20026;-74
2023/05/30 03:11:54;;;;;;;6.97;1.77;;;13.40;99.90;;;;;;4998801;28;20061;-74
2023/05/30 03:14:20;;;;;;;14.75;2.10;;;13.40;99.90;;;;;;5000205;28;20019;-74
2023/05/30 03:16:46;;;;;;;13.52;2.60;;;13.20;99.90;;;;;;5001261;28;20033;-74
2023/05/30 03:19:12;;;;;;;8.90;2.53;;;13.30;99.90;;;;;;5000952;28;20026;-74
2023/05/30 03:21:38;;;;;;;12.40;2.25;;;13.00;99.90;;;;;;5001079;28;20030;-74
2023/05/30 03:24:04;;;;;;;8.18;2.45;;;12.90;99.90;;;;;;5000817;28;20022;-74
2023/05/30 03:26:29;;;;;;;11.50;1.83;;;13.10;99.90;;;;;;5000272;28;20088;-74
2023/05/30 03:28:55;;;;;;;12.75;2.95;;;12.80;99.90;;;;;;5000108;28;20034;-74
2023/05/30 03:31:21;;;;;;;8.25;2.08;;;12.90;99.90;;;;;;5000655;28;20030;-74
2023/05/30 03:33:46;;;;;;;7.93;2.13;;;12.80;99.90;;;;;;5000014;28;20033;-74
2023/05/30 03:36:12;;;;;;;8.68;2.03;;;12.80;99.90;;;;;;4999701;28;20034;-74
2023/05/30 03:38:38;;;;;;;13.45;2.15;;;13.00;99.90;;;;;;4999967;28;20058;-74
2023/05/30 03:41:04;;;;;;;14.05;2.08;;;12.90;99.90;;;;;;4999739;28;20049;-74
2023/05/30 03:43:30;;;;;;;11.45;2.53;;;12.80;99.90;;;;;;5000473;28;20037;-74
2023/05/30 03:45:55;;;;;;;10.68;2.30;;;13.10;99.90;;;;;;5000713;28;20035;-74
2023/05/30 03:48:21;;;;;;;10.25;2.45;;;13.10;99.90;;;;;;5000669;28;20026;-74
2023/05/30 03:50:46;;;;;;;11.75;2.30;;;13.10;99.90;;;;;;4999545;28;20041;-74
2023/05/30 03:53:12;;;;;;;9.15;1.83;;;13.00;99.90;;;;;;4999388;28;20077;-74
2023/05/30 03:55:39;;;;;;;15.80;2.50;;;12.70;99.90;;;;;;4999687;28;20034;-74
2023/05/30 03:58:04;;;;;;;9.45;2.85;;;12.80;99.90;;;;;;4999489;28;20030;-74
2023/05/30 04:00:30;;;;;;;12.88;2.22;;;13.00;99.90;;;;;;4999651;28;20053;-74
2023/05/30 04:02:59;;;;;;;11.40;1.98;;;12.60;99.90;;;;;;5000267;28;20033;-74
2023/05/30 04:05:25;;;;;;;17.67;2.70;;;12.90;99.90;;;;;;5000422;28;20073;-74
2023/05/30 04:07:51;;;;;;;7.88;1.45;;;13.00;99.90;;;;;;5000193;28;20027;-74
2023/05/30 04:10:16;;;;;;;7.05;1.67;;;13.00;99.90;;;;;;4999932;28;20018;-74
2023/05/30 04:12:43;;;;;;;13.02;2.47;;;12.70;99.90;;;;;;5000024;28;20026;-74
2023/05/30 04:15:09;;;;;;;9.68;2.30;;;12.60;99.90;;;;;;4999198;28;20076;-74
2023/05/30 04:17:34;;;;;;;13.30;3.03;;;12.60;99.90;;;;;;4999594;28;20022;-74
2023/05/30 04:20:00;;;;;;;10.73;2.00;;;12.70;99.90;;;;;;4999083;28;20022;-74
2023/05/30 04:22:26;;;;;;;13.35;2.50;;;12.70;99.90;;;;;;4998316;28;20081;-73
2023/05/30 04:24:52;;;;;;;7.25;1.80;;;12.70;99.90;;;;;;4999902;28;20030;-74
2023/05/30 04:27:19;;;;;;;12.00;2.30;;;12.80;99.90;;;;;;4999048;28;20039;-74
2023/05/30 04:29:46;;;;;;;9.88;2.03;;;12.70;99.90;;;;;;4999889;28;20021;-74
2023/05/30 04:32:11;;;;;;;7.05;2.10;;;12.80;99.90;;;;;;4998756;28;20022;-74
2023/05/30 04:34:39;;;;;;;13.10;2.33;;;12.80;99.90;;;;;;4998813;28;20045;-74
2023/05/30 04:37:06;;;;;;;12.40;2.22;;;12.60;99.90;;;;;;4999326;28;20076;-74
2023/05/30 04:39:32;;;;;;;12.68;1.65;;;12.80;99.90;;;;;;4998628;28;20050;-74
2023/05/30 04:41:58;;;;;;;10.77;1.73;;;13.10;99.90;;;;;;4998679;28;20030;-74
2023/05/30 04:44:24;;;;;;;12.55;2.40;;;13.20;99.90;;;;;;4998801;28;20093;-74
2023/05/30 04:46:50;;;;;;;9.27;1.90;;;12.90;99.90;;;;;;4998428;28;20045;-74
2023/05/30 04:49:16;;;;;;;7.10;2.28;;;13.00;99.90;;;;;;4999440;28;20057;-74
2023/05/30 04:51:43;;;;;;;9.32;1.95;;;12.80;99.90;;;;;;4999338;28;20061;-74
2023/05/30 04:54:08;;;;;;;8.52;1.90;;;12.70;99.90;;;;;;4999334;28;20029;-74
2023/05/30 04:56:34;;;;;;;7.45;1.98;;;12.80;99.90;;;;;;4998500;28;20062;-74
2023/05/30 04:59:00;;;;;;;7.30;2.08;;;12.80;99.90;;;;;;4999184;28;20038;-74
2023/05/30 05:01:25;;;;;;;9.80;2.20;;;12.90;99.90;;;;;;4998437;28;20026;-74
2023/05/30 05:03:51;;;;;;;7.68;1.85;;;12.90;99.90;;;;;;4998069;28;20080;-74
2023/05/30 05:06:17;;;;;;;9.38;1.75;;;13.30;99.90;;;;;;4998091;28;20029;-74
2023/05/30 05:08:42;;;;;;;11.10;1.67;;;13.40;99.90;;;;;;4998158;28;20022;-74
2023/05/30 05:11:08;;;;;;;12.57;2.42;;;13.20;99.90;;;;;;4998482;28;20027;-74
2023/05/30 05:13:34;;;;;;;6.82;1.88;;;13.20;99.90;;;;;;4998197;28;20019;-74
2023/05/30 05:16:00;;;;;;;10.02;1.50;;;13.10;99.90;;;;;;4997837;28;20118;-74
2023/05/30 05:18:27;;;;;;;8.13;2.15;;;13.30;99.90;;;;;;4997879;28;20077;-74
2023/05/30 05:20:52;;;;;;;9.38;2.05;;;13.20;99.90;;;;;;4997874;28;20031;-74
2023/05/30 05:23:18;;;;;;;10.80;3.20;;;13.30;99.90;;;;;;4998913;28;20030;-74
2023/05/30 05:25:44;;;;;;;14.38;1.95;;;13.50;99.90;;;;;;4998164;28;20022;-74
2023/05/30 05:28:10;;;;;;;12.02;1.98;;;13.40;99.90;;;;;;4999099;28;20119;-74
2023/05/30 05:30:36;;;;;;;6.70;2.05;;;13.40;99.90;;;;;;4997946;28;20023;-74
2023/05/30 05:33:01;;;;;;;5.80;1.80;;;13.40;99.90;;;;;;4997867;28;20025;-74
2023/05/30 05:35:27;;;;;;;7.63;2.13;;;13.20;99.90;;;;;;4997026;28;20109;-74
2023/05/30 05:37:52;;;;;;;6.53;1.65;;;13.30;99.90;;;;;;4998786;28;20030;-74
2023/05/30 05:40:19;;;;;;;11.43;1.90;;;13.30;99.90;;;;;;4998465;28;20086;-74
2023/05/30 05:42:44;;;;;;;7.85;2.42;;;13.40;99.90;;;;;;4997930;28;20033;-74
2023/05/30 05:45:10;;;;;;;8.75;2.17;;;13.40;99.90;;;;;;4997635;28;20023;-74
2023/05/30 05:47:36;;;;;;;14.18;3.25;;;13.50;99.90;;;;;;4998616;28;20029;-73
2023/05/30 05:50:02;;;;;;;7.95;2.13;;;13.50;99.90;;;;;;4998540;28;20030;-74
2023/05/30 05:52:27;;;;;;;4.78;1.67;;;13.60;99.90;;;;;;4997263;28;20026;-74
2023/05/30 05:54:53;;;;;;;12.20;1.92;;;13.80;99.90;;;;;;4997411;28;20069;-74
2023/05/30 05:57:18;;;;;;;10.85;1.55;;;13.70;99.90;;;;;;4997607;28;20084;-74
2023/05/30 05:59:44;;;;;;;7.35;2.38;;;13.80;99.90;;;;;;4997241;28;20026;-74
2023/05/30 06:02:10;;;;;;;15.38;2.10;;;13.80;99.90;;;;;;4998135;28;20048;-74
2023/05/30 06:04:36;;;;;;;13.07;2.65;;;13.80;99.90;;;;;;4997166;28;20029;-73
2023/05/30 06:07:02;;;;;;;8.10;1.77;;;13.80;99.90;;;;;;4997849;28;20037;-74
2023/05/30 06:09:31;;;;;;;12.55;1.88;;;14.10;99.90;;;;;;4998179;28;20029;-74
2023/05/30 06:11:58;;;;;;;9.23;1.77;;;13.90;99.90;;;;;;4996927;28;20054;-74
2023/05/30 06:14:23;;;;;;;12.93;2.22;;;14.00;99.90;;;;;;4996993;28;20018;-74
2023/05/30 06:16:49;;;;;;;9.32;2.03;;;14.30;99.90;;;;;;4997145;28;20029;-74
2023/05/30 06:19:15;;;;;;;12.30;2.35;;;14.40;99.90;;;;;;4996803;28;20026;-74
2023/05/30 06:21:40;;;;;;;11.10;2.10;;;14.30;99.90;;;;;;4997038;28;20048;-74
2023/05/30 06:24:06;;;;;;;11.13;2.00;;;14.20;99.90;;;;;;4997952;28;20026;-74
2023/05/30 06:26:32;;;;;;;9.82;2.10;;;14.10;99.90;;;;;;4996819;28;20118;-74
2023/05/30 06:28:58;;;;;;;9.82;2.60;;;14.40;99.90;;;;;;4997365;28;20034;-72
2023/05/30 06:31:23;;;;;;;14.00;2.20;;;14.40;99.90;;;;;;4997844;28;20018;-72
2023/05/30 06:33:49;;;;;;;11.23;1.95;;;14.30;99.90;;;;;;4997605;28;20029;-72
2023/05/30 06:36:14;;;;;;;16.42;2.13;;;14.40;99.90;;;;;;4996818;28;20030;-72
2023/05/30 06:38:40;;;;;;;9.98;1.95;;;14.50;99.90;;;;;;4997013;28;20022;-72
2023/05/30 06:41:06;;;;;;;7.25;2.15;;;14.50;99.90;;;;;;4996667;28;20031;-72
2023/05/30 06:43:32;;;;;;;7.75;2.10;;;14.70;99.90;;;;;;4997141;28;20030;-72
2023/05/30 06:45:57;;;;;;;13.77;2.35;;;15.00;99.90;;;;;;4997653;28;20073;-72
2023/05/30 06:48:23;;;;;;;9.57;2.53;;;14.80;99.90;;;;;;5000858;28;20022;-72
2023/05/30 06:50:48;;;;;;;8.25;1.90;;;14.90;99.90;;;;;;5001678;28;20069;-72
2023/05/30 06:53:14;;;;;;;14.70;2.67;;;14.90;99.90;;;;;;5000962;28;20076;-72
2023/05/30 06:55:39;;;;;;;8.10;2.28;;;14.90;99.90;;;;;;5000491;28;20081;-72
2023/05/30 06:58:08;;;;;;;6.55;2.20;;;14.80;99.90;;;;;;5000891;28;20022;-72
2023/05/30 07:00:34;;;;;;;7.30;2.03;;;14.90;99.90;;;;;;5001346;28;20026;-72
2023/05/30 07:03:02;;;;;;;11.77;2.28;;;14.90;99.90;;;;;;5001563;28;20027;-72
2023/05/30 07:05:28;;;;;;;17.65;2.40;;;14.90;99.90;;;;;;5000284;28;20036;-72
2023/05/30 07:07:54;;;;;;;10.07;1.67;;;15.10;99.90;;;;;;5000648;28;20113;-71
2023/05/30 07:10:19;;;;;;;13.55;2.03;;;15.40;99.90;;;;;;5001310;28;20094;-72
2023/05/30 07:12:45;;;;;;;6.63;2.05;;;15.50;99.90;;;;;;5000581;28;20022;-71
2023/05/30 07:15:13;;;;;;;10.25;2.28;;;15.50;99.90;;;;;;5000596;28;20049;-73
2023/05/30 07:17:38;;;;;;;6.78;2.05;;;15.50;99.90;;;;;;5002155;28;20080;-73
2023/05/30 07:20:08;;;;;;;12.80;2.10;;;15.50;99.90;;;;;;5000302;28;20113;-71
2023/05/30 07:22:34;;;;;;;15.27;1.77;;;15.60;99.90;;;;;;5000137;28;20030;-73
2023/05/30 07:24:59;;;;;;;13.73;2.33;;;15.60;99.90;;;;;;5000143;28;20037;-73
2023/05/30 07:27:25;;;;;;;6.45;2.08;;;15.70;99.90;;;;;;5000041;28;20041;-73
2023/05/30 07:29:51;;;;;;;5.95;1.65;;;15.80;99.90;;;;;;5000304;28;20026;-74
2023/05/30 07:32:16;;;;;;;12.57;2.15;;;15.90;99.90;;;;;;5000725;28;20015;-73
2023/05/30 07:34:42;;;;;;;9.70;2.10;;;16.00;99.90;;;;;;4999890;28;20024;-75
2023/05/30 07:37:08;;;;;;;11.85;2.20;;;16.10;99.90;;;;;;5000643;28;20061;-73
2023/05/30 07:39:34;;;;;;;10.32;1.85;;;16.20;99.90;;;;;;4999694;28;20022;-75
2023/05/30 07:42:00;;;;;;;10.07;2.55;;;16.30;99.90;;;;;;5000084;28;20026;-73
2023/05/30 07:44:26;;;;;;;8.30;1.65;;;16.30;99.90;;;;;;4999603;28;20037;-74
2023/05/30 07:46:51;;;;;;;17.77;2.53;;;16.40;99.90;;;;;;4999672;28;20117;-74
2023/05/30 07:49:19;;;;;;;17.90;2.60;;;16.30;99.90;;;;;;5000342;28;20116;-73
2023/05/30 07:51:44;;;;;;;16.77;3.10;;;16.40;99.90;;;;;;4999968;28;20038;-73
2023/05/30 07:54:10;;;;;;;7.95;1.75;;;16.60;99.90;;;;;;4999861;28;20023;-73
2023/05/30 07:56:35;;;;;;;7.65;1.90;;;16.60;99.90;;;;;;4999560;28;20026;-74
2023/05/30 07:59:01;;;;;;;13.90;2.13;;;16.60;99.90;;;;;;4998680;28;20081;-73
2023/05/30 08:01:27;;;;;;;11.98;1.85;;;16.70;99.90;;;;;;5000473;28;20030;-73
2023/05/30 08:03:52;;;;;;;12.30;2.38;;;16.80;99.90;;;;;;5000436;28;20026;-73
2023/05/30 08:06:19;;;;;;;9.75;2.20;;;16.90;99.90;;;;;;4999046;28;20022;-73
2023/05/30 08:08:45;;;;;;;7.35;2.08;;;17.00;99.90;;;;;;5000178;28;20074;-73
2023/05/30 08:11:11;;;;;;;10.70;1.73;;;17.10;99.90;;;;;;4999635;28;20022;-73
2023/05/30 08:13:36;;;;;;;9.95;1.83;;;17.10;99.90;;;;;;5000017;28;20022;-73
2023/05/30 08:16:02;;;;;;;10.93;2.33;;;17.10;99.90;;;;;;4999247;28;20029;-73
2023/05/30 08:18:30;;;;;;;6.50;1.80;;;17.20;99.90;;;;;;5000131;28;20082;-73
2023/05/30 08:20:56;;;;;;;12.35;2.28;;;17.30;99.90;;;;;;4999952;28;20109;-73
2023/05/30 08:23:21;;;;;;;12.05;2.10;;;17.40;99.90;;;;;;4999044;28;20053;-73
2023/05/30 08:25:47;;;;;;;10.50;2.90;;;17.50;99.90;;;;;;4998871;28;20034;-72
2023/05/30 08:28:13;;;;;;;11.25;1.80;;;17.60;99.90;;;;;;4999397;28;20062;-73
2023/05/30 08:30:40;;;;;;;14.18;1.88;;;17.70;99.90;;;;;;5000013;28;20023;-72
2023/05/30 08:33:07;;;;;;;9.77;2.30;;;18.00;99.90;;;;;;4998841;28;20019;-73
2023/05/30 08:35:33;;;;;;;9.55;2.08;;;18.00;99.90;;;;;;4998784;28;20033;-73
2023/05/30 08:37:59;;;;;;;10.75;2.17;;;18.00;99.90;;;;;;4998997;28;20034;-73
2023/05/30 08:40:26;;;;;;;10.30;2.10;;;18.00;99.90;;;;;;4998827;28;20026;-73
2023/05/30 08:42:52;;;;;;;12.10;2.65;;;18.00;99.90;;;;;;4998576;28;20084;-73
2023/05/30 08:45:22;;;;;;;7.13;1.98;;;18.00;99.90;;;;;;4998620;28;20049;-73
2023/05/30 08:47:53;;;;;;;6.22;1.48;;;18.10;99.90;;;;;;4999501;28;20157;-73
2023/05/30 08:50:20;;;;;;;7.27;2.03;;;18.40;99.90;;;;;;4999441;28;20037;-73
2023/05/30 08:52:52;;;;;;;10.48;1.80;;;18.60;99.90;;;;;;4998749;28;20262;-73
2023/05/30 08:55:23;;;;;;;12.05;2.58;;;18.50;99.90;;;;;;4999235;28;20037;-73
2023/05/30 08:58:04;;;;;;;13.10;3.17;;;18.70;99.90;;;;;;4999339;28;20061;-73
2023/05/30 09:00:31;;;;;;;8.80;1.88;;;18.80;99.90;;;;;;4999470;28;20045;-72
2023/05/30 09:02:57;;;;;;;10.82;1.85;;;18.90;99.90;;;;;;4998268;28;20032;-72
2023/05/30 09:05:24;;;;;;;4.57;1.48;;;19.10;99.90;;;;;;4998183;28;20052;-72
2023/05/30 09:07:52;;;;;;;5.60;1.85;;;19.10;99.90;;;;;;4999046;28;20015;-72
2023/05/30 09:10:19;;;;;;;6.30;1.70;;;19.10;99.90;;;;;;4999041;28;20081;-72
2023/05/30 09:12:45;;;;;;;7.93;2.00;;;19.20;99.90;;;;;;4998030;28;20026;-73
2023/05/30 09:15:11;;;;;;;5.60;1.90;;;19.20;99.90;;;;;;4998817;28;20117;-73
2023/05/30 09:17:37;;;;;;;7.88;1.83;;;19.40;99.90;;;;;;4999242;28;20023;-72
2023/05/30 09:20:02;;;;;;;8.90;1.58;;;19.50;99.90;;;;;;4998563;28;20023;-73
2023/05/30 09:22:28;;;;;;;5.78;1.40;;;19.40;99.90;;;;;;4998875;28;20068;-72
2023/05/30 09:25:03;;;;;;;8.07;1.50;;;19.50;99.90;;;;;;4998002;28;20022;-73
2023/05/30 09:27:32;;;;;;;11.43;2.50;;;19.60;99.90;;;;;;4997819;28;20042;-73
2023/05/30 09:30:09;;;;;;;13.15;2.45;;;19.80;99.90;;;;;;4997785;28;20027;-73
2023/05/30 09:32:36;;;;;;;8.93;1.92;;;19.80;99.90;;;;;;4997718;28;20033;-73
2023/05/30 09:35:10;;;;;;;9.40;1.90;;;20.00;99.90;;;;;;4997668;28;20096;-75
2023/05/30 09:37:36;;;;;;;4.47;1.80;;;20.20;99.60;;;;;;4997843;28;20096;-74
2023/05/30 09:40:15;;;;;;;7.28;1.60;;;20.30;99.00;;;;;;4997767;28;20024;-75
2023/05/30 09:42:48;;;;;;;6.75;2.50;;;20.60;99.60;;;;;;4998371;28;20022;-73
2023/05/30 09:45:15;;;;;;;5.53;1.95;;;20.70;99.20;;;;;;4997825;28;20023;-76
2023/05/30 09:47:46;;;;;;;16.65;2.80;;;20.70;99.10;;;;;;4997710;28;20029;-74
2023/05/30 09:50:17;;;;;;;13.70;1.93;;;20.40;99.10;;;;;;4997255;28;20026;-73
2023/05/30 09:52:43;;;;;;;8.88;2.95;;;20.60;99.90;;;;;;4998414;28;20036;-75
2023/05/30 09:55:12;;;;;;;9.57;2.08;;;20.70;99.20;;;;;;4997279;28;20035;-76
2023/05/30 09:57:39;;;;;;;7.82;1.95;;;20.60;98.70;;;;;;4997223;28;20029;-76
2023/05/30 10:00:09;;;;;;;9.98;1.80;;;20.90;98.30;;;;;;4997206;28;20080;-75
2023/05/30 10:02:38;;;;;;;10.18;1.75;;;20.90;98.10;;;;;;4997474;28;20026;-74
2023/05/30 10:05:04;;;;;;;4.88;1.70;;;21.10;98.50;;;;;;4997164;28;20076;-74
2023/05/30 10:07:31;;;;;;;9.48;1.85;;;21.20;98.30;;;;;;4997081;28;20022;-74
2023/05/30 10:09:57;;;;;;;7.78;2.03;;;21.20;97.40;;;;;;4997042;28;20046;-74
2023/05/30 10:12:23;;;;;;;10.02;2.03;;;21.30;96.00;;;;;;4997957;28;20018;-74
2023/05/30 10:14:49;;;;;;;7.63;2.13;;;21.50;95.90;;;;;;4996945;28;20080;-74
2023/05/30 10:17:19;;;;;;;8.65;1.70;;;21.30;95.20;;;;;;4996956;28;20113;-74
2023/05/30 10:19:58;;;;;;;8.88;1.85;;;21.30;97.00;;;;;;4997741;28;20030;-74
2023/05/30 10:22:26;;;;;;;12.27;2.15;;;21.50;95.20;;;;;;4997466;28;20026;-74
2023/05/30 10:24:53;;;;;;;10.98;2.55;;;21.80;96.20;;;;;;4997159;28;20046;-74
2023/05/30 10:27:24;;;;;;;10.65;2.15;;;21.80;95.40;;;;;;4997570;28;20069;-75
2023/05/30 10:30:06;;;;;;;6.78;1.95;;;21.90;98.80;;;;;;4996816;28;20077;-75
2023/05/30 10:32:36;;;;;;;6.13;2.15;;;22.00;94.80;;;;;;4997740;28;20081;-75
2023/05/30 10:35:11;;;;;;;10.32;2.17;;;22.20;95.00;;;;;;4998491;28;20023;-75
2023/05/30 10:37:38;;;;;;;12.13;2.10;;;22.40;95.40;;;;;;4996601;28;20018;-75
2023/05/30 10:40:31;;;;;;;9.13;2.30;;;22.90;93.40;;;;;;4996961;28;20065;-75
2023/05/30 10:43:20;;;;;;;9.27;2.00;;;22.90;93.60;;;;;;4996849;28;20077;-74
2023/05/30 10:46:15;;;;;;;11.15;2.20;;;23.30;93.80;;;;;;4997435;28;20026;-75
2023/05/30 10:48:46;;;;;;;10.85;2.40;;;23.30;93.10;;;;;;4996679;28;20022;-75
2023/05/30 10:51:13;;;;;;;9.52;2.58;;;23.40;92.80;;;;;;4997624;28;20019;-76
2023/05/30 10:53:44;;;;;;;13.18;2.28;;;23.40;92.50;;;;;;4996627;28;20019;-76
2023/05/30 10:56:34;;;;;;;9.20;2.42;;;23.50;94.00;;;;;;4997528;28;20057;-76
2023/05/30 10:59:02;;;;;;;12.98;2.53;;;23.80;90.40;;;;;;4997161;28;20039;-76
2023/05/30 11:01:31;;;;;;;6.55;2.80;;;23.70;90.80;;;;;;4996610;28;20049;-75
2023/05/30 11:04:04;;;;;;;13.45;2.22;;;23.80;91.60;;;;;;4996522;28;20026;-76
2023/05/30 11:06:41;;;;;;;9.50;2.17;;;23.70;88.30;;;;;;4996301;28;20030;-75
2023/05/30 11:09:14;;;;;;;12.02;2.30;;;24.10;91.80;;;;;;4996585;28;20022;-75
2023/05/30 11:11:41;;;;;;;10.50;2.83;;;24.40;90.00;;;;;;4996409;28;20038;-75
2023/05/30 11:14:07;;;;;;;9.32;2.40;;;24.20;87.10;;;;;;4996516;28;20022;-75
2023/05/30 11:16:46;;;;;;;6.63;2.40;;;23.90;86.30;;;;;;4996397;28;20126;-75
2023/05/30 11:19:12;;;;;;;8.80;2.20;;;23.80;90.10;;;;;;4996433;28;20030;-76
2023/05/30 11:22:00;;;;;;;9.75;2.20;;;24.10;88.20;;;;;;4996430;28;20045;-76
2023/05/30 11:24:31;;;;;;;9.98;2.63;;;24.70;89.60;;;;;;4996422;28;20119;-76
2023/05/30 11:27:07;;;;;;;13.45;2.80;;;24.80;86.50;;;;;;4996232;28;20065;-76
2023/05/30 11:29:49;;;;;;;7.25;2.47;;;25.10;88.40;;;;;;4996365;28;20076;-75
2023/05/30 11:32:28;;;;;;;11.48;3.28;;;24.90;86.70;;;;;;4997519;28;20018;-75
2023/05/30 11:34:59;;;;;;;12.40;2.72;;;25.30;85.10;;;;;;4999974;28;20084;-75
2023/05/30 11:37:25;;;;;;;10.88;2.78;;;25.50;87.70;;;;;;5001301;28;20077;-76
2023/05/30 11:39:57;;;;;;;7.72;2.88;;;25.40;84.70;;;;;;5001013;28;20045;-76
2023/05/30 11:42:24;;;;;;;9.07;2.17;;;25.50;81.60;;;;;;4999981;28;20019;-77
2023/05/30 11:44:49;;;;;;;8.63;2.45;;;25.80;83.80;;;;;;4999803;28;20037;-82
2023/05/30 11:47:15;;;;;;;8.32;2.15;;;25.90;80.40;;;;;;5000941;28;20026;-83
2023/05/30 11:49:41;;;;;;;6.13;2.35;;;25.90;78.40;;;;;;5000558;28;20026;-85
2023/05/30 11:52:07;;;;;;;8.15;2.88;;;25.80;79.70;;;;;;5000822;28;20076;-81
2023/05/30 11:54:34;;;;;;;9.82;2.20;;;26.00;80.50;;;;;;5000331;28;20030;-82
2023/05/30 11:56:59;;;;;;;15.02;2.75;;;26.20;80.20;;;;;;5000338;28;20061;-81
2023/05/30 11:59:26;;;;;;;12.48;2.90;;;26.20;78.40;;;;;;5000385;28;20054;-82
2023/05/30 12:01:57;;;;;;;13.30;2.67;;;26.00;78.50;;;;;;4999698;28;20077;-78
2023/05/30 12:04:29;;;;;;;8.32;2.55;;;25.80;73.80;;;;;;5000338;28;20023;-78
2023/05/30 12:07:04;;;;;;;9.90;2.20;;;25.80;77.70;;;;;;4999163;28;20041;-78
2023/05/30 12:09:36;;;;;;;12.23;3.47;;;26.00;76.60;;;;;;4999280;28;20049;-77
2023/05/30 12:12:02;;;;;;;10.98;2.53;;;26.20;73.90;;;;;;5000092;28;20041;-82
2023/05/30 12:14:44;;;;;;;6.55;2.40;;;26.00;71.40;;;;;;5000374;28;20023;-82
2023/05/30 12:17:18;;;;;;;5.90;2.25;;;25.90;71.70;;;;;;4999588;28;20049;-77
2023/05/30 12:20:16;;;;;;;7.55;2.33;;;25.90;69.00;;;;;;4999229;28;20026;-78
2023/05/30 12:22:44;;;;;;;7.63;2.22;;;26.10;69.70;;;;;;4962926;28;20035;-77
2023/05/30 12:25:12;;;;;;;6.80;2.50;;;26.20;73.40;;;;;;4978950;28;20038;-77
2023/05/30 12:27:48;;;;;;;9.00;2.40;;;26.30;70.90;;;;;;4998199;22;20134;-73
2023/05/30 12:30:15;;;;;;;11.70;2.60;;;26.30;70.60;;;;;;5016096;28;20110;-73
2023/05/30 12:32:41;;;;;;;8.20;2.33;;;26.40;71.70;;;;;;4999690;28;20031;-72
2023/05/30 12:35:08;;;;;;;8.52;2.20;;;26.40;73.00;;;;;;4998848;28;20049;-72
2023/05/30 12:37:33;;;;;;;7.10;2.15;;;26.00;71.40;;;;;;4998713;28;20022;-72
2023/05/30 12:40:00;;;;;;;12.55;3.08;;;25.70;71.10;;;;;;4999682;28;20054;-72
2023/05/30 12:42:28;;;;;;;7.50;2.22;;;25.40;71.00;;;;;;4998720;28;20029;-72
2023/05/30 12:44:58;;;;;;;8.52;2.22;;;25.30;72.20;;;;;;4998148;28;20081;-72